Terminal Aerodrome Forecast
Issued by NWS Mt. Holly, NJ

Home | Current Version | Previous Version | Text Only | Print | Product List | Glossary On
Versions: 1 2 3 4 5 6 7 8 9 10 11 12 13 14 15 16 17
503
FTUS41 KPHI 231120
TAFABE
TAF
KABE 231120Z 2312/2412 09005KT 3SM SHRA OVC012 WS020/20040KT
      TEMPO 2312/2316 2SM +SHRA OVC006
     FM231700 27005KT 6SM -SHRA OVC025
     FM231800 26010KT P6SM BKN035
     FM232100 27011KT P6SM BKN060
     FM240500 28009KT P6SM SCT080=

USA.gov is the U.S. government's official web portal to all federal, state and local government web resources and services.